createdAt,value
2023-02-15T00:02:35.406Z,6.43
2023-02-15T00:05:22.414Z,7.22
2023-02-15T00:08:10.139Z,6.28
2023-02-15T00:11:14.268Z,7.10
2023-02-15T00:14:14.416Z,6.60
2023-02-15T00:17:02.577Z,7.07
2023-02-15T00:19:50.559Z,6.07
2023-02-15T00:22:38.060Z,6.60
2023-02-15T00:25:28.133Z,6.82
2023-02-15T00:28:15.417Z,7.05
2023-02-15T00:31:13.375Z,7.20
2023-02-15T00:34:14.327Z,6.28
2023-02-15T00:37:01.953Z,6.10
2023-02-15T00:39:52.371Z,5.97
2023-02-15T00:42:40.240Z,6.43
2023-02-15T00:45:28.816Z,6.30
2023-02-15T00:48:23.524Z,7.90
2023-02-15T00:54:30.068Z,5.90
2023-02-15T00:57:19.665Z,6.13
2023-02-15T01:00:17.478Z,6.50
2023-02-15T01:03:15.844Z,7.70
2023-02-15T01:06:14.235Z,7.15
2023-02-15T01:09:06.815Z,6.80
2023-02-15T01:11:54.963Z,6.82
2023-02-15T01:14:51.503Z,6.18
2023-02-15T01:17:56.422Z,5.90
2023-02-15T01:21:00.620Z,6.07
2023-02-15T01:23:53.407Z,6.97
2023-02-15T01:26:41.348Z,6.15
2023-02-15T01:29:29.112Z,6.32
2023-02-15T01:32:21.274Z,6.25
2023-02-15T01:38:29.610Z,7.38
2023-02-15T01:41:27.463Z,6.28
2023-02-15T01:48:31.032Z,6.53
2023-02-15T01:51:29.871Z,6.82
2023-02-15T01:54:30.700Z,6.10
2023-02-15T01:57:33.479Z,6.28
2023-02-15T02:00:27.553Z,5.90
2023-02-15T02:03:22.848Z,5.97
2023-02-15T02:06:12.813Z,5.93
2023-02-15T02:09:09.940Z,5.80
2023-02-15T02:12:06.224Z,6.57
2023-02-15T02:14:59.029Z,6.07
2023-02-15T02:17:52.030Z,6.13
2023-02-15T02:21:04.575Z,6.50
2023-02-15T02:24:22.581Z,5.95
2023-02-15T02:27:52.856Z,6.90
2023-02-15T02:31:19.953Z,6.70
2023-02-15T02:34:37.094Z,6.22
2023-02-15T02:37:36.903Z,6.65
2023-02-15T02:40:52.438Z,5.82
2023-02-15T02:44:07.477Z,5.75
2023-02-15T02:47:19.834Z,6.88
2023-02-15T02:50:38.167Z,6.50
2023-02-15T02:53:31.845Z,6.45
2023-02-15T02:56:49.343Z,5.80
2023-02-15T02:59:52.607Z,5.95
2023-02-15T03:02:43.295Z,6.07
2023-02-15T03:05:43.430Z,6.30
2023-02-15T03:08:50.183Z,6.80
2023-02-15T03:12:07.628Z,6.82
2023-02-15T03:15:24.345Z,6.05
2023-02-15T03:18:53.386Z,6.28
2023-02-15T03:22:11.193Z,6.60
2023-02-15T03:25:37.077Z,6.63
2023-02-15T03:28:41.277Z,5.38
2023-02-15T03:31:36.428Z,6.68
2023-02-15T03:34:34.052Z,6.32
2023-02-15T03:37:54.141Z,7.10
2023-02-15T03:41:09.493Z,6.53
2023-02-15T03:44:31.000Z,6.28
2023-02-15T03:47:42.158Z,6.07
2023-02-15T03:50:56.610Z,5.90
2023-02-15T03:53:55.502Z,6.30
2023-02-15T03:57:03.962Z,6.05
2023-02-15T04:00:19.199Z,6.10
2023-02-15T04:03:51.937Z,5.85
2023-02-15T04:06:51.786Z,5.90
2023-02-15T04:10:12.492Z,6.30
2023-02-15T04:13:06.742Z,5.95
2023-02-15T04:16:09.443Z,6.10
2023-02-15T04:19:19.071Z,6.30
2023-02-15T04:22:29.045Z,6.43
2023-02-15T04:25:28.672Z,7.20
2023-02-15T04:28:34.201Z,6.10
2023-02-15T04:31:50.750Z,5.63
2023-02-15T04:34:45.691Z,5.60
2023-02-15T04:37:37.221Z,6.10
2023-02-15T04:40:30.821Z,5.95
2023-02-15T04:43:24.182Z,6.90
2023-02-15T04:46:24.105Z,6.97
2023-02-15T04:49:21.132Z,6.00
2023-02-15T04:52:18.527Z,6.38
2023-02-15T04:55:12.019Z,6.20
2023-02-15T04:58:10.232Z,6.22
2023-02-15T05:01:03.712Z,5.90
2023-02-15T05:04:16.915Z,6.70
2023-02-15T05:07:15.833Z,6.30
2023-02-15T05:10:18.679Z,6.05
2023-02-15T05:13:28.297Z,6.47
2023-02-15T05:19:41.410Z,6.20
2023-02-15T05:22:38.298Z,6.75
2023-02-15T05:25:53.877Z,6.88
2023-02-15T05:28:44.629Z,6.68
2023-02-15T05:31:40.386Z,6.90
2023-02-15T05:34:35.543Z,5.82
2023-02-15T05:37:27.421Z,6.50
2023-02-15T05:40:18.347Z,6.03
2023-02-15T05:43:07.093Z,5.75
2023-02-15T05:46:12.717Z,5.55
2023-02-15T05:49:08.128Z,7.57
2023-02-15T05:52:02.792Z,7.30
2023-02-15T06:05:53.684Z,6.63
2023-02-15T06:11:33.190Z,6.13
2023-02-15T06:19:34.814Z,6.97
2023-02-15T06:22:27.727Z,6.07
2023-02-15T06:25:19.618Z,6.35
2023-02-15T06:28:09.641Z,5.88
2023-02-15T06:34:49.498Z,6.20
2023-02-15T06:38:08.761Z,6.63
2023-02-15T06:41:08.870Z,5.93
2023-02-15T06:43:55.769Z,7.18
2023-02-15T06:46:46.038Z,7.93
2023-02-15T06:49:41.697Z,8.40
2023-02-15T06:52:36.158Z,8.15
2023-02-15T06:55:32.012Z,8.18
2023-02-15T06:58:37.058Z,8.30
2023-02-15T07:01:24.069Z,7.38
2023-02-15T07:04:22.087Z,7.60
2023-02-15T07:07:12.371Z,7.75
2023-02-15T07:09:59.176Z,7.25
2023-02-15T07:12:51.275Z,7.88
2023-02-15T07:15:40.891Z,8.75
2023-02-15T07:18:27.678Z,7.55
2023-02-15T07:21:18.618Z,7.82
2023-02-15T07:24:05.602Z,8.93
2023-02-15T07:26:52.588Z,7.80
2023-02-15T07:29:39.370Z,7.93
2023-02-15T07:32:29.554Z,7.50
2023-02-15T07:35:16.497Z,8.40
2023-02-15T07:38:03.335Z,8.10
2023-02-15T07:40:52.504Z,7.18
2023-02-15T07:43:41.558Z,7.80
2023-02-15T07:46:33.658Z,8.05
2023-02-15T07:49:23.253Z,7.45
2023-02-15T07:52:10.286Z,7.38
2023-02-15T07:55:01.839Z,7.35
2023-02-15T07:57:50.544Z,8.40
2023-02-15T08:00:57.230Z,7.72
2023-02-15T08:03:45.885Z,7.75
2023-02-15T08:06:37.728Z,7.47
2023-02-15T08:09:24.638Z,8.23
2023-02-15T08:12:11.540Z,7.43
2023-02-15T08:14:58.387Z,7.57
2023-02-15T08:17:45.195Z,7.32
2023-02-15T08:20:32.022Z,7.45
2023-02-15T08:23:18.844Z,7.05
2023-02-15T08:26:05.703Z,7.75
2023-02-15T08:28:53.056Z,7.10
2023-02-15T08:31:42.737Z,7.25
2023-02-15T08:34:35.041Z,8.00
2023-02-15T08:37:21.935Z,7.15
2023-02-15T08:40:09.277Z,7.22
2023-02-15T08:42:56.079Z,7.15
2023-02-15T08:45:43.079Z,7.38
2023-02-15T08:48:29.867Z,6.53
2023-02-15T08:51:21.761Z,6.57
2023-02-15T08:54:11.587Z,6.35
2023-02-15T08:57:01.147Z,7.50
2023-02-15T08:59:50.435Z,6.63
2023-02-15T09:02:38.032Z,7.15
2023-02-15T09:05:25.220Z,6.97
2023-02-15T09:08:12.021Z,6.72
2023-02-15T09:11:06.750Z,6.20
2023-02-15T09:14:02.056Z,6.78
2023-02-15T09:16:51.754Z,6.38
2023-02-15T09:19:38.731Z,6.50
2023-02-15T09:22:28.134Z,6.45
2023-02-15T09:25:15.019Z,6.45
2023-02-15T09:28:01.864Z,6.60
2023-02-15T09:30:48.794Z,7.05
2023-02-15T09:33:37.142Z,6.68
2023-02-15T09:36:26.192Z,6.68
2023-02-15T09:39:20.125Z,7.00
2023-02-15T09:42:48.376Z,5.93
2023-02-15T09:45:43.318Z,6.10
2023-02-15T09:48:57.665Z,6.70
2023-02-15T09:52:11.697Z,6.97
2023-02-15T09:55:17.281Z,6.82
2023-02-15T09:58:29.162Z,6.95
2023-02-15T10:01:40.574Z,6.75
2023-02-15T10:04:46.195Z,7.20
2023-02-15T10:07:50.710Z,6.32
2023-02-15T10:11:33.512Z,6.10
2023-02-15T10:14:42.481Z,7.03
2023-02-15T10:17:41.624Z,6.57
2023-02-15T10:20:41.413Z,6.82
2023-02-15T10:23:43.338Z,6.53
2023-02-15T10:26:39.127Z,6.75
2023-02-15T10:29:35.142Z,6.93
2023-02-15T10:32:27.134Z,6.15
2023-02-15T10:35:32.793Z,6.75
2023-02-15T10:38:42.089Z,6.97
2023-02-15T10:44:38.487Z,6.82
2023-02-15T10:47:47.910Z,7.10
2023-02-15T10:50:54.142Z,5.95
2023-02-15T10:54:23.042Z,6.97
2023-02-15T10:57:31.993Z,6.47
2023-02-15T11:00:24.755Z,6.22
2023-02-15T11:03:39.257Z,6.47
2023-02-15T11:06:27.363Z,6.47
2023-02-15T11:09:16.493Z,6.88
2023-02-15T11:12:03.803Z,6.93
2023-02-15T11:14:56.139Z,6.93
2023-02-15T11:17:48.258Z,7.10
2023-02-15T11:20:55.657Z,6.28
2023-02-15T11:23:47.971Z,6.38
2023-02-15T11:26:39.210Z,6.60
2023-02-15T11:29:59.916Z,7.00
2023-02-15T11:33:02.911Z,6.72
2023-02-15T11:35:54.244Z,6.55
2023-02-15T11:38:44.374Z,6.55
2023-02-15T11:41:36.150Z,6.93
2023-02-15T11:44:27.269Z,7.18
2023-02-15T11:47:14.907Z,7.00
2023-02-15T11:50:01.707Z,6.72
2023-02-15T11:52:49.231Z,6.80
2023-02-15T11:55:36.354Z,6.88
2023-02-15T11:58:29.503Z,7.32
2023-02-15T12:01:29.163Z,6.93
2023-02-15T12:04:27.057Z,6.45
2023-02-15T12:07:45.086Z,7.20
2023-02-15T12:11:01.543Z,6.13
2023-02-15T12:14:17.088Z,6.95
2023-02-15T12:17:03.916Z,6.68
2023-02-15T12:19:53.556Z,6.43
2023-02-15T12:22:41.112Z,7.18
2023-02-15T12:25:37.258Z,6.97
2023-02-15T12:28:34.294Z,6.60
2023-02-15T12:31:28.449Z,6.38
2023-02-15T12:34:40.477Z,6.32
2023-02-15T12:37:34.983Z,6.22
2023-02-15T12:40:31.622Z,6.30
2023-02-15T12:43:32.870Z,5.75
2023-02-15T12:46:30.626Z,6.95
2023-02-15T12:49:27.455Z,5.72
2023-02-15T12:52:21.130Z,6.15
2023-02-15T12:55:32.610Z,6.95
2023-02-15T12:58:23.170Z,6.28
2023-02-15T13:01:09.961Z,6.70
2023-02-15T13:04:05.917Z,6.50
2023-02-15T13:06:54.880Z,6.95
2023-02-15T13:09:41.797Z,6.18
2023-02-15T13:12:31.881Z,6.75
2023-02-15T13:15:40.283Z,6.90
2023-02-15T13:18:40.858Z,6.45
2023-02-15T13:21:39.459Z,6.43
2023-02-15T13:24:36.538Z,6.18
2023-02-15T13:27:35.285Z,6.72
2023-02-15T13:30:30.029Z,6.38
2023-02-15T13:33:27.301Z,7.00
2023-02-15T13:36:21.361Z,6.43
2023-02-15T13:39:09.211Z,6.80
2023-02-15T13:42:22.166Z,7.18
2023-02-15T13:45:52.289Z,6.95
2023-02-15T13:49:01.945Z,6.90
2023-02-15T13:52:09.549Z,7.30
2023-02-15T13:55:22.137Z,7.18
2023-02-15T13:58:25.466Z,7.00
2023-02-15T14:01:23.609Z,7.75
2023-02-15T14:04:26.144Z,7.03
2023-02-15T14:07:34.465Z,7.20
2023-02-15T14:11:01.473Z,7.40
2023-02-15T14:14:03.853Z,7.13
2023-02-15T14:17:10.308Z,7.28
2023-02-15T14:20:23.034Z,7.47
2023-02-15T14:23:15.817Z,7.38
2023-02-15T14:26:19.648Z,8.48
2023-02-15T14:29:16.112Z,7.95
2023-02-15T14:32:12.522Z,8.20
2023-02-15T14:35:15.316Z,7.25
2023-02-15T14:38:05.356Z,7.93
2023-02-15T14:41:12.921Z,7.82
2023-02-15T14:44:13.269Z,7.47
2023-02-15T14:47:12.258Z,7.82
2023-02-15T14:50:01.132Z,7.85
2023-02-15T14:53:16.922Z,7.30
2023-02-15T14:56:21.744Z,7.65
2023-02-15T14:59:15.726Z,8.27
2023-02-15T15:02:09.921Z,8.20
2023-02-15T15:05:04.224Z,8.30
2023-02-15T15:07:57.974Z,8.70
2023-02-15T15:10:49.268Z,7.95
2023-02-15T15:13:38.883Z,7.95
2023-02-15T15:16:39.753Z,8.23
2023-02-15T15:19:51.856Z,8.50
2023-02-15T15:22:39.415Z,8.38
2023-02-15T15:25:55.679Z,8.45
2023-02-15T15:28:42.491Z,8.43
2023-02-15T15:31:40.079Z,8.63
2023-02-15T15:34:42.839Z,8.55
2023-02-15T15:38:15.987Z,8.40
2023-02-15T15:41:31.166Z,8.52
2023-02-15T15:45:07.150Z,9.25
2023-02-15T15:48:07.801Z,8.30
2023-02-15T15:50:58.423Z,9.15
2023-02-15T15:53:49.700Z,8.32
2023-02-15T15:56:39.572Z,7.90
2023-02-15T15:59:29.618Z,7.57
2023-02-15T16:02:17.952Z,7.93
2023-02-15T16:05:09.638Z,7.13
2023-02-15T16:07:56.585Z,7.50
2023-02-15T16:10:43.673Z,7.40
2023-02-15T16:13:30.531Z,7.30
2023-02-15T16:16:25.133Z,6.85
2023-02-15T16:19:24.841Z,7.80
2023-02-15T16:22:20.214Z,7.43
2023-02-15T16:25:26.504Z,7.47
2023-02-15T16:28:13.913Z,7.88
2023-02-15T16:31:15.317Z,7.85
2023-02-15T16:34:11.412Z,6.18
2023-02-15T16:37:17.808Z,7.25
2023-02-15T16:40:05.550Z,7.65
2023-02-15T16:42:54.793Z,7.28
2023-02-15T16:48:28.751Z,7.70
2023-02-15T16:51:24.235Z,7.22
2023-02-15T16:54:19.745Z,7.13
2023-02-15T16:57:06.542Z,7.65
2023-02-15T16:59:54.963Z,7.38
2023-02-15T17:02:56.583Z,7.53
2023-02-15T17:05:45.628Z,7.30
2023-02-15T17:08:33.924Z,7.57
2023-02-15T17:11:22.856Z,7.40
2023-02-15T17:14:12.755Z,7.28
2023-02-15T17:17:07.915Z,7.68
2023-02-15T17:19:55.673Z,7.65
2023-02-15T17:22:45.358Z,7.40
2023-02-15T17:25:43.223Z,7.80
2023-02-15T17:28:31.866Z,7.63
2023-02-15T17:31:22.460Z,8.02
2023-02-15T17:34:42.202Z,8.02
2023-02-15T17:37:44.317Z,7.63
2023-02-15T17:40:36.994Z,8.73
2023-02-15T17:43:26.127Z,8.20
2023-02-15T17:46:16.198Z,8.13
2023-02-15T17:49:03.921Z,8.65
2023-02-15T17:51:53.776Z,7.70
2023-02-15T17:55:02.563Z,8.73
2023-02-15T17:57:51.148Z,7.95
2023-02-15T18:01:05.226Z,8.07
2023-02-15T18:04:12.045Z,8.75
2023-02-15T18:07:20.895Z,8.40
2023-02-15T18:10:36.973Z,8.18
2023-02-15T18:13:23.796Z,8.43
2023-02-15T18:16:15.956Z,8.98
2023-02-15T18:19:12.056Z,8.32
2023-02-15T18:21:58.852Z,8.30
2023-02-15T18:24:49.940Z,8.88
2023-02-15T18:27:36.755Z,8.27
2023-02-15T18:30:26.488Z,8.57
2023-02-15T18:33:33.408Z,9.05
2023-02-15T18:36:35.325Z,8.25
2023-02-15T18:39:38.169Z,7.80
2023-02-15T18:42:37.129Z,8.52
2023-02-15T18:45:28.782Z,8.35
2023-02-15T18:48:18.260Z,8.88
2023-02-15T18:51:08.159Z,8.20
2023-02-15T18:53:54.961Z,8.80
2023-02-15T18:56:41.815Z,8.52
2023-02-15T18:59:30.441Z,9.23
2023-02-15T19:02:18.619Z,9.55
2023-02-15T19:05:05.550Z,9.40
2023-02-15T19:07:52.444Z,8.48
2023-02-15T19:10:43.372Z,9.00
2023-02-15T19:13:35.261Z,9.07
2023-02-15T19:16:27.697Z,9.90
2023-02-15T19:19:16.044Z,10.43
2023-02-15T19:22:03.683Z,9.07
2023-02-15T19:24:52.421Z,8.85
2023-02-15T19:27:39.226Z,9.82
2023-02-15T19:30:29.808Z,9.05
2023-02-15T19:33:21.765Z,9.30
2023-02-15T19:36:17.376Z,9.65
2023-02-15T19:39:04.280Z,9.32
2023-02-15T19:41:52.368Z,9.43
2023-02-15T19:44:43.559Z,9.52
2023-02-15T19:47:30.393Z,9.60
2023-02-15T19:50:22.168Z,10.40
2023-02-15T19:53:20.139Z,10.75
2023-02-15T19:56:23.472Z,9.65
2023-02-15T19:59:31.475Z,9.52
2023-02-15T20:02:20.130Z,9.55
2023-02-15T20:05:07.651Z,10.73
2023-02-15T20:07:55.065Z,10.68
2023-02-15T20:10:41.920Z,10.07
2023-02-15T20:13:29.009Z,10.65
2023-02-15T20:16:15.863Z,10.70
2023-02-15T20:19:02.662Z,10.15
2023-02-15T20:21:52.080Z,10.27
2023-02-15T20:24:38.923Z,11.02
2023-02-15T20:27:26.562Z,11.82
2023-02-15T20:30:19.830Z,10.70
2023-02-15T20:33:07.614Z,11.40
2023-02-15T20:35:54.533Z,10.27
2023-02-15T20:38:41.590Z,11.05
2023-02-15T20:41:39.546Z,10.80
2023-02-15T20:44:35.135Z,10.10
2023-02-15T20:47:21.908Z,10.55
2023-02-15T20:50:08.929Z,9.85
2023-02-15T20:52:57.259Z,10.18
2023-02-15T20:55:44.032Z,10.23
2023-02-15T20:58:30.909Z,10.00
2023-02-15T21:01:19.901Z,10.63
2023-02-15T21:04:09.095Z,10.45
2023-02-15T21:06:58.727Z,10.07
2023-02-15T21:09:46.221Z,10.27
2023-02-15T21:12:36.105Z,10.00
2023-02-15T21:15:34.489Z,10.68
2023-02-15T21:18:31.389Z,10.73
2023-02-15T21:21:23.560Z,10.45
2023-02-15T21:24:14.598Z,9.88
2023-02-15T21:27:03.173Z,10.60
2023-02-15T21:29:50.083Z,9.68
2023-02-15T21:32:37.068Z,9.73
2023-02-15T21:35:24.059Z,10.32
2023-02-15T21:38:15.981Z,9.55
2023-02-15T21:41:22.788Z,9.30
2023-02-15T21:44:38.464Z,9.40
2023-02-15T21:47:46.544Z,9.95
2023-02-15T21:50:53.776Z,10.23
2023-02-15T21:53:42.676Z,10.10
2023-02-15T21:56:29.477Z,11.02
2023-02-15T21:59:19.250Z,11.45
2023-02-15T22:02:25.311Z,11.25
2023-02-15T22:05:18.021Z,11.05
2023-02-15T22:08:11.389Z,10.93
2023-02-15T22:10:58.233Z,11.02
2023-02-15T22:13:46.688Z,9.98
2023-02-15T22:16:33.506Z,10.80
2023-02-15T22:19:20.329Z,10.88
2023-02-15T22:22:07.112Z,11.65
2023-02-15T22:24:53.877Z,10.60
2023-02-15T22:27:41.419Z,11.63
2023-02-15T22:30:34.271Z,11.20
2023-02-15T22:33:24.417Z,11.35
2023-02-15T22:36:29.070Z,11.80
2023-02-15T22:39:18.168Z,10.82
2023-02-15T22:42:05.346Z,11.52
2023-02-15T22:44:53.664Z,11.82
2023-02-15T22:47:40.439Z,11.60
2023-02-15T22:50:32.158Z,11.82
2023-02-15T22:53:18.968Z,10.50
2023-02-15T22:56:07.690Z,11.95
2023-02-15T22:59:01.174Z,11.52
2023-02-15T23:01:48.237Z,10.68
2023-02-15T23:04:35.034Z,11.70
2023-02-15T23:07:23.257Z,11.93
2023-02-15T23:10:21.035Z,12.18
2023-02-15T23:13:25.467Z,12.30
2023-02-15T23:16:17.930Z,11.68
2023-02-15T23:19:06.450Z,12.30
2023-02-15T23:21:53.428Z,12.05
2023-02-15T23:24:40.472Z,11.82
2023-02-15T23:27:45.887Z,11.50
2023-02-15T23:30:32.886Z,10.65
2023-02-15T23:33:21.875Z,11.68
2023-02-15T23:36:24.088Z,12.45
2023-02-15T23:39:37.575Z,12.55
2023-02-15T23:42:35.093Z,11.75
2023-02-15T23:45:23.197Z,12.18
2023-02-15T23:48:32.606Z,11.65
2023-02-15T23:51:20.538Z,11.88
2023-02-15T23:54:07.318Z,11.65
2023-02-15T23:56:55.886Z,12.27
2023-02-15T23:59:43.936Z,12.10
